sensor_id;sensor_type;location;lat;lon;timestamp;P1;durP1;ratioP1;P2;durP2;ratioP2
10347;SDS011;5220;43.192;23.284;2022-09-09T00:01:14;11.00;;;7.82;;
10347;SDS011;5220;43.192;23.284;2022-09-09T00:04:05;12.68;;;7.63;;
10347;SDS011;5220;43.192;23.284;2022-09-09T00:06:43;12.02;;;7.75;;
10347;SDS011;5220;43.192;23.284;2022-09-09T00:09:13;13.60;;;8.57;;
10347;SDS011;5220;43.192;23.284;2022-09-09T00:11:43;12.55;;;9.05;;
10347;SDS011;5220;43.192;23.284;2022-09-09T00:14:18;14.43;;;9.30;;
10347;SDS011;5220;43.192;23.284;2022-09-09T00:16:54;12.50;;;8.48;;
10347;SDS011;5220;43.192;23.284;2022-09-09T00:19:27;16.10;;;8.63;;
10347;SDS011;5220;43.192;23.284;2022-09-09T00:22:02;11.30;;;7.82;;
10347;SDS011;5220;43.192;23.284;2022-09-09T00:27:57;12.98;;;7.72;;
10347;SDS011;5220;43.192;23.284;2022-09-09T00:30:26;9.52;;;7.65;;
10347;SDS011;5220;43.192;23.284;2022-09-09T00:33:15;12.15;;;7.50;;
10347;SDS011;5220;43.192;23.284;2022-09-09T00:35:48;7.93;;;6.88;;
10347;SDS011;5220;43.192;23.284;2022-09-09T00:38:17;6.97;;;6.28;;
10347;SDS011;5220;43.192;23.284;2022-09-09T00:40:49;11.00;;;6.82;;
10347;SDS011;5220;43.192;23.284;2022-09-09T00:43:27;8.02;;;6.90;;
10347;SDS011;5220;43.192;23.284;2022-09-09T00:49:18;8.52;;;6.90;;
10347;SDS011;5220;43.192;23.284;2022-09-09T00:51:54;7.50;;;6.72;;
10347;SDS011;5220;43.192;23.284;2022-09-09T00:57:25;7.88;;;7.07;;
10347;SDS011;5220;43.192;23.284;2022-09-09T00:59:58;11.82;;;6.75;;
10347;SDS011;5220;43.192;23.284;2022-09-09T01:02:31;9.45;;;7.07;;
10347;SDS011;5220;43.192;23.284;2022-09-09T01:05:15;10.13;;;6.32;;
10347;SDS011;5220;43.192;23.284;2022-09-09T01:10:53;12.68;;;6.95;;
10347;SDS011;5220;43.192;23.284;2022-09-09T01:13:22;10.20;;;7.43;;
10347;SDS011;5220;43.192;23.284;2022-09-09T01:15:52;11.25;;;7.03;;
10347;SDS011;5220;43.192;23.284;2022-09-09T01:18:25;11.05;;;7.43;;
10347;SDS011;5220;43.192;23.284;2022-09-09T01:21:01;11.68;;;7.00;;
10347;SDS011;5220;43.192;23.284;2022-09-09T01:26:59;8.95;;;6.78;;
10347;SDS011;5220;43.192;23.284;2022-09-09T01:32:39;9.70;;;6.78;;
10347;SDS011;5220;43.192;23.284;2022-09-09T01:38:29;14.48;;;6.38;;
10347;SDS011;5220;43.192;23.284;2022-09-09T01:40:58;9.93;;;6.93;;
10347;SDS011;5220;43.192;23.284;2022-09-09T01:46:35;12.02;;;6.63;;
10347;SDS011;5220;43.192;23.284;2022-09-09T01:49:02;9.48;;;7.28;;
10347;SDS011;5220;43.192;23.284;2022-09-09T01:51:32;10.88;;;6.78;;
10347;SDS011;5220;43.192;23.284;2022-09-09T01:57:23;10.38;;;6.18;;
10347;SDS011;5220;43.192;23.284;2022-09-09T01:59:57;9.05;;;6.70;;
10347;SDS011;5220;43.192;23.284;2022-09-09T02:02:32;8.68;;;6.15;;
10347;SDS011;5220;43.192;23.284;2022-09-09T02:05:08;9.60;;;6.55;;
10347;SDS011;5220;43.192;23.284;2022-09-09T02:07:44;10.73;;;7.25;;
10347;SDS011;5220;43.192;23.284;2022-09-09T02:10:16;9.23;;;6.45;;
10347;SDS011;5220;43.192;23.284;2022-09-09T02:12:47;11.00;;;6.80;;
10347;SDS011;5220;43.192;23.284;2022-09-09T02:15:20;9.90;;;6.80;;
10347;SDS011;5220;43.192;23.284;2022-09-09T02:17:54;9.98;;;6.25;;
10347;SDS011;5220;43.192;23.284;2022-09-09T02:20:23;13.02;;;6.15;;
10347;SDS011;5220;43.192;23.284;2022-09-09T02:22:52;12.80;;;7.10;;
10347;SDS011;5220;43.192;23.284;2022-09-09T02:25:22;12.30;;;7.57;;
10347;SDS011;5220;43.192;23.284;2022-09-09T02:27:52;10.77;;;7.15;;
10347;SDS011;5220;43.192;23.284;2022-09-09T02:30:19;9.60;;;6.70;;
10347;SDS011;5220;43.192;23.284;2022-09-09T02:32:47;7.85;;;6.35;;
10347;SDS011;5220;43.192;23.284;2022-09-09T02:35:19;6.85;;;6.15;;
10347;SDS011;5220;43.192;23.284;2022-09-09T02:37:49;8.52;;;6.07;;
10347;SDS011;5220;43.192;23.284;2022-09-09T02:40:19;8.25;;;6.13;;
10347;SDS011;5220;43.192;23.284;2022-09-09T02:42:48;10.05;;;6.60;;
10347;SDS011;5220;43.192;23.284;2022-09-09T02:45:16;10.15;;;6.35;;
10347;SDS011;5220;43.192;23.284;2022-09-09T02:47:46;7.95;;;6.70;;
10347;SDS011;5220;43.192;23.284;2022-09-09T02:50:19;8.85;;;6.30;;
10347;SDS011;5220;43.192;23.284;2022-09-09T02:52:54;11.55;;;6.88;;
10347;SDS011;5220;43.192;23.284;2022-09-09T02:55:34;9.65;;;6.72;;
10347;SDS011;5220;43.192;23.284;2022-09-09T02:58:08;14.15;;;7.30;;
10347;SDS011;5220;43.192;23.284;2022-09-09T03:00:37;14.48;;;6.80;;
10347;SDS011;5220;43.192;23.284;2022-09-09T03:03:05;19.60;;;7.88;;
10347;SDS011;5220;43.192;23.284;2022-09-09T03:05:35;11.85;;;6.63;;
10347;SDS011;5220;43.192;23.284;2022-09-09T03:08:02;12.85;;;7.75;;
10347;SDS011;5220;43.192;23.284;2022-09-09T03:10:29;9.95;;;7.50;;
10347;SDS011;5220;43.192;23.284;2022-09-09T03:12:55;7.45;;;6.65;;
10347;SDS011;5220;43.192;23.284;2022-09-09T03:15:22;7.55;;;6.18;;
10347;SDS011;5220;43.192;23.284;2022-09-09T03:17:49;10.35;;;6.55;;
10347;SDS011;5220;43.192;23.284;2022-09-09T03:20:16;7.93;;;6.57;;
10347;SDS011;5220;43.192;23.284;2022-09-09T03:22:44;9.13;;;6.28;;
10347;SDS011;5220;43.192;23.284;2022-09-09T03:25:11;10.63;;;7.00;;
10347;SDS011;5220;43.192;23.284;2022-09-09T03:27:37;10.55;;;6.75;;
10347;SDS011;5220;43.192;23.284;2022-09-09T03:30:05;8.32;;;6.65;;
10347;SDS011;5220;43.192;23.284;2022-09-09T03:32:32;7.38;;;6.18;;
10347;SDS011;5220;43.192;23.284;2022-09-09T03:37:36;10.77;;;6.50;;
10347;SDS011;5220;43.192;23.284;2022-09-09T03:40:06;9.60;;;6.70;;
10347;SDS011;5220;43.192;23.284;2022-09-09T03:42:33;7.35;;;6.55;;
10347;SDS011;5220;43.192;23.284;2022-09-09T03:45:02;8.35;;;5.85;;
10347;SDS011;5220;43.192;23.284;2022-09-09T03:47:29;9.95;;;6.75;;
10347;SDS011;5220;43.192;23.284;2022-09-09T03:49:56;6.38;;;5.72;;
10347;SDS011;5220;43.192;23.284;2022-09-09T03:52:22;7.30;;;5.80;;
10347;SDS011;5220;43.192;23.284;2022-09-09T03:54:51;12.32;;;5.50;;
10347;SDS011;5220;43.192;23.284;2022-09-09T03:57:19;7.07;;;6.07;;
10347;SDS011;5220;43.192;23.284;2022-09-09T03:59:46;6.68;;;5.35;;
10347;SDS011;5220;43.192;23.284;2022-09-09T04:02:13;9.23;;;5.03;;
10347;SDS011;5220;43.192;23.284;2022-09-09T04:04:50;8.85;;;5.30;;
10347;SDS011;5220;43.192;23.284;2022-09-09T04:07:18;7.20;;;5.72;;
10347;SDS011;5220;43.192;23.284;2022-09-09T04:09:45;9.70;;;5.50;;
10347;SDS011;5220;43.192;23.284;2022-09-09T04:12:12;7.47;;;5.35;;
10347;SDS011;5220;43.192;23.284;2022-09-09T04:14:42;5.65;;;5.03;;
10347;SDS011;5220;43.192;23.284;2022-09-09T04:17:09;10.15;;;5.10;;
10347;SDS011;5220;43.192;23.284;2022-09-09T04:19:36;5.40;;;4.90;;
10347;SDS011;5220;43.192;23.284;2022-09-09T04:22:03;6.65;;;5.82;;
10347;SDS011;5220;43.192;23.284;2022-09-09T04:30:47;7.68;;;5.72;;
10347;SDS011;5220;43.192;23.284;2022-09-09T04:33:14;4.93;;;4.53;;
10347;SDS011;5220;43.192;23.284;2022-09-09T04:35:43;6.22;;;5.22;;
10347;SDS011;5220;43.192;23.284;2022-09-09T04:38:11;6.13;;;4.70;;
10347;SDS011;5220;43.192;23.284;2022-09-09T04:40:37;6.07;;;5.15;;
10347;SDS011;5220;43.192;23.284;2022-09-09T04:43:08;9.48;;;5.28;;
10347;SDS011;5220;43.192;23.284;2022-09-09T04:45:35;9.57;;;5.70;;
10347;SDS011;5220;43.192;23.284;2022-09-09T04:48:03;12.02;;;5.43;;
10347;SDS011;5220;43.192;23.284;2022-09-09T04:50:30;9.50;;;5.60;;
10347;SDS011;5220;43.192;23.284;2022-09-09T04:52:59;8.45;;;5.57;;
10347;SDS011;5220;43.192;23.284;2022-09-09T04:55:26;6.28;;;5.28;;
10347;SDS011;5220;43.192;23.284;2022-09-09T04:57:53;9.35;;;5.75;;
10347;SDS011;5220;43.192;23.284;2022-09-09T05:00:20;5.72;;;5.22;;
10347;SDS011;5220;43.192;23.284;2022-09-09T05:02:47;7.80;;;6.10;;
10347;SDS011;5220;43.192;23.284;2022-09-09T05:05:15;9.63;;;5.82;;
10347;SDS011;5220;43.192;23.284;2022-09-09T05:07:43;12.90;;;7.07;;
10347;SDS011;5220;43.192;23.284;2022-09-09T05:10:11;11.93;;;6.32;;
10347;SDS011;5220;43.192;23.284;2022-09-09T05:12:38;7.35;;;6.15;;
10347;SDS011;5220;43.192;23.284;2022-09-09T05:15:05;15.32;;;6.72;;
10347;SDS011;5220;43.192;23.284;2022-09-09T05:17:32;15.65;;;6.80;;
10347;SDS011;5220;43.192;23.284;2022-09-09T05:20:00;14.55;;;7.15;;
10347;SDS011;5220;43.192;23.284;2022-09-09T05:22:29;17.80;;;7.50;;
10347;SDS011;5220;43.192;23.284;2022-09-09T05:24:56;26.65;;;7.50;;
10347;SDS011;5220;43.192;23.284;2022-09-09T05:27:23;18.50;;;8.30;;
10347;SDS011;5220;43.192;23.284;2022-09-09T05:29:50;18.23;;;8.25;;
10347;SDS011;5220;43.192;23.284;2022-09-09T05:32:16;21.02;;;9.43;;
10347;SDS011;5220;43.192;23.284;2022-09-09T05:34:43;17.52;;;8.38;;
10347;SDS011;5220;43.192;23.284;2022-09-09T05:37:11;21.23;;;8.50;;
10347;SDS011;5220;43.192;23.284;2022-09-09T05:39:39;18.83;;;8.15;;
10347;SDS011;5220;43.192;23.284;2022-09-09T05:42:06;18.30;;;8.32;;
10347;SDS011;5220;43.192;23.284;2022-09-09T05:47:36;12.18;;;8.07;;
10347;SDS011;5220;43.192;23.284;2022-09-09T05:50:03;9.95;;;7.55;;
10347;SDS011;5220;43.192;23.284;2022-09-09T05:52:31;11.98;;;7.13;;
10347;SDS011;5220;43.192;23.284;2022-09-09T06:01:55;10.90;;;7.45;;
10347;SDS011;5220;43.192;23.284;2022-09-09T06:04:22;14.48;;;7.32;;
10347;SDS011;5220;43.192;23.284;2022-09-09T06:06:50;14.15;;;7.50;;
10347;SDS011;5220;43.192;23.284;2022-09-09T06:09:16;17.08;;;7.80;;
10347;SDS011;5220;43.192;23.284;2022-09-09T06:11:43;9.05;;;8.00;;
10347;SDS011;5220;43.192;23.284;2022-09-09T06:14:10;17.80;;;8.13;;
10347;SDS011;5220;43.192;23.284;2022-09-09T06:16:37;15.13;;;7.82;;
10347;SDS011;5220;43.192;23.284;2022-09-09T06:19:05;14.18;;;7.57;;
10347;SDS011;5220;43.192;23.284;2022-09-09T06:21:32;12.35;;;7.35;;
10347;SDS011;5220;43.192;23.284;2022-09-09T06:24:02;10.80;;;7.38;;
10347;SDS011;5220;43.192;23.284;2022-09-09T06:26:30;8.38;;;6.80;;
10347;SDS011;5220;43.192;23.284;2022-09-09T06:28:58;9.10;;;7.00;;
10347;SDS011;5220;43.192;23.284;2022-09-09T06:31:28;11.82;;;6.70;;
10347;SDS011;5220;43.192;23.284;2022-09-09T06:37:19;57.75;;;9.70;;
10347;SDS011;5220;43.192;23.284;2022-09-09T06:39:45;16.83;;;8.65;;
10347;SDS011;5220;43.192;23.284;2022-09-09T06:42:13;23.85;;;8.48;;
10347;SDS011;5220;43.192;23.284;2022-09-09T06:44:40;15.80;;;8.35;;
10347;SDS011;5220;43.192;23.284;2022-09-09T06:47:07;11.90;;;7.35;;
10347;SDS011;5220;43.192;23.284;2022-09-09T06:49:34;20.98;;;7.75;;
10347;SDS011;5220;43.192;23.284;2022-09-09T06:52:01;12.10;;;8.45;;
10347;SDS011;5220;43.192;23.284;2022-09-09T06:54:29;11.27;;;7.53;;
10347;SDS011;5220;43.192;23.284;2022-09-09T06:56:56;10.55;;;7.03;;
10347;SDS011;5220;43.192;23.284;2022-09-09T06:59:22;15.38;;;8.60;;
10347;SDS011;5220;43.192;23.284;2022-09-09T07:01:49;9.32;;;7.90;;
10347;SDS011;5220;43.192;23.284;2022-09-09T07:04:18;14.38;;;10.52;;
10347;SDS011;5220;43.192;23.284;2022-09-09T07:06:45;14.27;;;9.77;;
10347;SDS011;5220;43.192;23.284;2022-09-09T07:09:13;14.43;;;7.30;;
10347;SDS011;5220;43.192;23.284;2022-09-09T07:11:43;12.00;;;6.78;;
10347;SDS011;5220;43.192;23.284;2022-09-09T07:14:11;10.23;;;6.43;;
10347;SDS011;5220;43.192;23.284;2022-09-09T07:16:39;14.57;;;6.88;;
10347;SDS011;5220;43.192;23.284;2022-09-09T07:19:06;6.78;;;5.45;;
10347;SDS011;5220;43.192;23.284;2022-09-09T07:21:33;10.77;;;5.28;;
10347;SDS011;5220;43.192;23.284;2022-09-09T07:24:00;17.52;;;6.78;;
10347;SDS011;5220;43.192;23.284;2022-09-09T07:26:28;9.48;;;5.85;;
10347;SDS011;5220;43.192;23.284;2022-09-09T07:28:57;11.27;;;7.35;;
10347;SDS011;5220;43.192;23.284;2022-09-09T07:31:26;15.10;;;6.10;;
10347;SDS011;5220;43.192;23.284;2022-09-09T07:34:03;6.53;;;5.40;;
10347;SDS011;5220;43.192;23.284;2022-09-09T07:36:30;13.52;;;6.28;;
10347;SDS011;5220;43.192;23.284;2022-09-09T07:38:59;7.85;;;5.25;;
10347;SDS011;5220;43.192;23.284;2022-09-09T07:41:28;7.68;;;4.82;;
10347;SDS011;5220;43.192;23.284;2022-09-09T07:44:03;9.95;;;5.03;;
10347;SDS011;5220;43.192;23.284;2022-09-09T07:46:31;6.35;;;5.70;;
10347;SDS011;5220;43.192;23.284;2022-09-09T07:48:59;8.05;;;5.40;;
10347;SDS011;5220;43.192;23.284;2022-09-09T07:51:26;10.05;;;5.15;;
10347;SDS011;5220;43.192;23.284;2022-09-09T07:53:56;11.02;;;5.20;;
10347;SDS011;5220;43.192;23.284;2022-09-09T07:56:24;8.88;;;5.35;;
10347;SDS011;5220;43.192;23.284;2022-09-09T07:58:52;6.55;;;5.53;;
10347;SDS011;5220;43.192;23.284;2022-09-09T08:01:22;5.30;;;4.90;;
10347;SDS011;5220;43.192;23.284;2022-09-09T08:03:54;6.18;;;5.38;;
10347;SDS011;5220;43.192;23.284;2022-09-09T08:06:24;6.65;;;5.95;;
10347;SDS011;5220;43.192;23.284;2022-09-09T08:08:52;9.00;;;5.90;;
10347;SDS011;5220;43.192;23.284;2022-09-09T08:11:20;17.25;;;6.30;;
10347;SDS011;5220;43.192;23.284;2022-09-09T08:13:48;14.93;;;6.50;;
10347;SDS011;5220;43.192;23.284;2022-09-09T08:16:17;14.25;;;5.50;;
10347;SDS011;5220;43.192;23.284;2022-09-09T08:18:48;5.95;;;4.68;;
10347;SDS011;5220;43.192;23.284;2022-09-09T08:21:17;5.65;;;5.03;;
10347;SDS011;5220;43.192;23.284;2022-09-09T08:27:06;5.18;;;4.78;;
10347;SDS011;5220;43.192;23.284;2022-09-09T08:29:32;6.60;;;5.05;;
10347;SDS011;5220;43.192;23.284;2022-09-09T08:31:59;5.50;;;5.03;;
10347;SDS011;5220;43.192;23.284;2022-09-09T08:34:38;9.93;;;4.97;;
10347;SDS011;5220;43.192;23.284;2022-09-09T08:37:06;5.45;;;4.95;;
10347;SDS011;5220;43.192;23.284;2022-09-09T08:39:33;6.90;;;5.20;;
10347;SDS011;5220;43.192;23.284;2022-09-09T08:44:57;5.88;;;4.97;;
10347;SDS011;5220;43.192;23.284;2022-09-09T08:47:34;7.35;;;5.25;;
10347;SDS011;5220;43.192;23.284;2022-09-09T08:50:16;4.97;;;4.53;;
10347;SDS011;5220;43.192;23.284;2022-09-09T08:52:51;7.25;;;5.20;;
10347;SDS011;5220;43.192;23.284;2022-09-09T08:55:24;5.53;;;4.20;;
10347;SDS011;5220;43.192;23.284;2022-09-09T08:57:54;6.85;;;4.20;;
10347;SDS011;5220;43.192;23.284;2022-09-09T09:00:23;5.65;;;4.60;;
10347;SDS011;5220;43.192;23.284;2022-09-09T09:03:04;6.60;;;5.20;;
10347;SDS011;5220;43.192;23.284;2022-09-09T09:05:40;8.20;;;5.35;;
10347;SDS011;5220;43.192;23.284;2022-09-09T09:08:14;5.30;;;4.80;;
10347;SDS011;5220;43.192;23.284;2022-09-09T09:10:51;9.27;;;5.80;;
10347;SDS011;5220;43.192;23.284;2022-09-09T09:13:26;5.90;;;5.20;;
10347;SDS011;5220;43.192;23.284;2022-09-09T09:16:02;9.25;;;6.55;;
10347;SDS011;5220;43.192;23.284;2022-09-09T09:18:37;8.52;;;5.95;;
10347;SDS011;5220;43.192;23.284;2022-09-09T09:21:07;7.97;;;5.50;;
10347;SDS011;5220;43.192;23.284;2022-09-09T09:23:39;7.95;;;4.47;;
10347;SDS011;5220;43.192;23.284;2022-09-09T09:26:11;6.85;;;4.97;;
10347;SDS011;5220;43.192;23.284;2022-09-09T09:28:38;7.20;;;5.40;;
10347;SDS011;5220;43.192;23.284;2022-09-09T09:31:06;8.55;;;5.30;;
10347;SDS011;5220;43.192;23.284;2022-09-09T09:33:38;7.38;;;5.35;;
10347;SDS011;5220;43.192;23.284;2022-09-09T09:36:15;5.88;;;4.97;;
10347;SDS011;5220;43.192;23.284;2022-09-09T09:38:51;10.93;;;6.20;;
10347;SDS011;5220;43.192;23.284;2022-09-09T09:41:28;11.50;;;6.15;;
10347;SDS011;5220;43.192;23.284;2022-09-09T09:43:56;12.20;;;5.75;;
10347;SDS011;5220;43.192;23.284;2022-09-09T09:46:24;9.65;;;6.03;;
10347;SDS011;5220;43.192;23.284;2022-09-09T09:48:58;8.57;;;6.15;;
10347;SDS011;5220;43.192;23.284;2022-09-09T09:51:27;7.13;;;5.60;;
10347;SDS011;5220;43.192;23.284;2022-09-09T09:54:13;10.85;;;6.07;;
10347;SDS011;5220;43.192;23.284;2022-09-09T09:56:44;13.30;;;5.60;;
10347;SDS011;5220;43.192;23.284;2022-09-09T09:59:23;6.93;;;6.30;;
10347;SDS011;5220;43.192;23.284;2022-09-09T10:02:06;11.20;;;5.78;;
10347;SDS011;5220;43.192;23.284;2022-09-09T10:08:09;7.15;;;6.15;;
10347;SDS011;5220;43.192;23.284;2022-09-09T10:10:42;7.70;;;6.40;;
10347;SDS011;5220;43.192;23.284;2022-09-09T10:13:20;9.70;;;6.43;;
10347;SDS011;5220;43.192;23.284;2022-09-09T10:16:00;8.52;;;6.63;;
10347;SDS011;5220;43.192;23.284;2022-09-09T10:18:38;7.95;;;6.45;;
10347;SDS011;5220;43.192;23.284;2022-09-09T10:21:15;10.85;;;6.18;;
10347;SDS011;5220;43.192;23.284;2022-09-09T10:27:09;7.60;;;6.53;;
10347;SDS011;5220;43.192;23.284;2022-09-09T10:29:48;8.25;;;7.43;;
10347;SDS011;5220;43.192;23.284;2022-09-09T10:32:33;9.25;;;6.95;;
10347;SDS011;5220;43.192;23.284;2022-09-09T10:38:27;7.85;;;6.70;;
10347;SDS011;5220;43.192;23.284;2022-09-09T10:41:04;7.15;;;6.55;;
10347;SDS011;5220;43.192;23.284;2022-09-09T10:47:09;15.88;;;8.40;;
10347;SDS011;5220;43.192;23.284;2022-09-09T10:49:51;12.00;;;7.13;;
10347;SDS011;5220;43.192;23.284;2022-09-09T10:52:35;11.18;;;7.30;;
10347;SDS011;5220;43.192;23.284;2022-09-09T10:55:13;15.60;;;8.07;;
10347;SDS011;5220;43.192;23.284;2022-09-09T10:57:44;11.60;;;9.77;;
10347;SDS011;5220;43.192;23.284;2022-09-09T11:00:15;14.85;;;10.07;;
10347;SDS011;5220;43.192;23.284;2022-09-09T11:02:44;13.20;;;10.40;;
10347;SDS011;5220;43.192;23.284;2022-09-09T11:05:16;51.03;;;12.70;;
10347;SDS011;5220;43.192;23.284;2022-09-09T11:07:47;13.30;;;11.80;;
10347;SDS011;5220;43.192;23.284;2022-09-09T11:10:20;13.07;;;10.15;;
10347;SDS011;5220;43.192;23.284;2022-09-09T11:12:53;13.05;;;10.38;;
10347;SDS011;5220;43.192;23.284;2022-09-09T11:15:28;15.32;;;10.63;;
10347;SDS011;5220;43.192;23.284;2022-09-09T11:18:01;17.48;;;10.73;;
10347;SDS011;5220;43.192;23.284;2022-09-09T11:20:31;19.55;;;12.18;;
10347;SDS011;5220;43.192;23.284;2022-09-09T11:22:59;13.25;;;11.73;;
10347;SDS011;5220;43.192;23.284;2022-09-09T11:25:30;13.80;;;11.70;;
10347;SDS011;5220;43.192;23.284;2022-09-09T11:28:20;12.63;;;9.45;;
10347;SDS011;5220;43.192;23.284;2022-09-09T11:31:01;12.35;;;8.43;;
10347;SDS011;5220;43.192;23.284;2022-09-09T11:40:09;16.70;;;14.85;;
10347;SDS011;5220;43.192;23.284;2022-09-09T11:42:43;16.33;;;12.30;;
10347;SDS011;5220;43.192;23.284;2022-09-09T11:45:19;15.77;;;11.18;;
10347;SDS011;5220;43.192;23.284;2022-09-09T11:47:52;9.95;;;8.85;;
10347;SDS011;5220;43.192;23.284;2022-09-09T11:50:27;11.45;;;10.18;;
10347;SDS011;5220;43.192;23.284;2022-09-09T11:59:19;12.65;;;9.55;;
10347;SDS011;5220;43.192;23.284;2022-09-09T12:01:50;10.27;;;9.07;;
10347;SDS011;5220;43.192;23.284;2022-09-09T12:07:22;11.60;;;8.63;;
10347;SDS011;5220;43.192;23.284;2022-09-09T12:09:57;11.55;;;8.52;;
10347;SDS011;5220;43.192;23.284;2022-09-09T12:19:12;10.15;;;8.88;;
10347;SDS011;5220;43.192;23.284;2022-09-09T12:21:44;11.98;;;9.07;;
10347;SDS011;5220;43.192;23.284;2022-09-09T12:27:11;14.20;;;8.10;;
10347;SDS011;5220;43.192;23.284;2022-09-09T12:29:46;11.00;;;8.13;;
10347;SDS011;5220;43.192;23.284;2022-09-09T12:32:22;8.73;;;7.82;;
10347;SDS011;5220;43.192;23.284;2022-09-09T12:34:55;9.55;;;8.20;;
10347;SDS011;5220;43.192;23.284;2022-09-09T12:37:34;8.13;;;7.47;;
10347;SDS011;5220;43.192;23.284;2022-09-09T12:40:04;11.10;;;8.15;;
10347;SDS011;5220;43.192;23.284;2022-09-09T12:42:33;9.48;;;7.78;;
10347;SDS011;5220;43.192;23.284;2022-09-09T12:45:22;11.93;;;7.93;;
10347;SDS011;5220;43.192;23.284;2022-09-09T12:47:51;10.43;;;7.85;;
10347;SDS011;5220;43.192;23.284;2022-09-09T12:50:23;10.32;;;7.38;;
10347;SDS011;5220;43.192;23.284;2022-09-09T12:52:52;8.27;;;6.97;;
10347;SDS011;5220;43.192;23.284;2022-09-09T13:01:42;8.07;;;7.18;;
10347;SDS011;5220;43.192;23.284;2022-09-09T13:10:24;15.15;;;7.88;;
10347;SDS011;5220;43.192;23.284;2022-09-09T13:12:54;10.40;;;7.57;;
10347;SDS011;5220;43.192;23.284;2022-09-09T13:15:21;10.70;;;8.13;;
10347;SDS011;5220;43.192;23.284;2022-09-09T13:17:55;9.80;;;7.72;;
10347;SDS011;5220;43.192;23.284;2022-09-09T13:23:48;7.45;;;6.82;;
10347;SDS011;5220;43.192;23.284;2022-09-09T13:29:40;8.20;;;7.43;;
10347;SDS011;5220;43.192;23.284;2022-09-09T13:32:21;10.65;;;7.85;;
10347;SDS011;5220;43.192;23.284;2022-09-09T13:38:12;10.85;;;8.55;;
10347;SDS011;5220;43.192;23.284;2022-09-09T13:40:40;9.48;;;8.00;;
10347;SDS011;5220;43.192;23.284;2022-09-09T13:46:27;10.55;;;7.40;;
10347;SDS011;5220;43.192;23.284;2022-09-09T13:48:59;8.13;;;7.20;;
10347;SDS011;5220;43.192;23.284;2022-09-09T13:51:29;11.45;;;7.88;;
10347;SDS011;5220;43.192;23.284;2022-09-09T13:54:08;10.10;;;8.20;;
10347;SDS011;5220;43.192;23.284;2022-09-09T13:56:38;8.73;;;7.40;;
10347;SDS011;5220;43.192;23.284;2022-09-09T14:02:29;8.07;;;7.10;;
10347;SDS011;5220;43.192;23.284;2022-09-09T14:07:42;8.55;;;7.32;;
10347;SDS011;5220;43.192;23.284;2022-09-09T14:10:10;10.52;;;7.60;;
10347;SDS011;5220;43.192;23.284;2022-09-09T14:12:53;8.45;;;7.60;;
10347;SDS011;5220;43.192;23.284;2022-09-09T14:18:42;10.93;;;6.57;;
10347;SDS011;5220;43.192;23.284;2022-09-09T14:21:09;13.50;;;8.20;;
10347;SDS011;5220;43.192;23.284;2022-09-09T14:23:37;8.73;;;7.30;;
10347;SDS011;5220;43.192;23.284;2022-09-09T14:26:06;8.63;;;7.65;;
10347;SDS011;5220;43.192;23.284;2022-09-09T14:28:35;11.27;;;7.90;;
10347;SDS011;5220;43.192;23.284;2022-09-09T14:37:16;12.38;;;7.40;;
10347;SDS011;5220;43.192;23.284;2022-09-09T14:39:44;37.92;;;10.23;;
10347;SDS011;5220;43.192;23.284;2022-09-09T14:42:12;11.93;;;8.13;;
10347;SDS011;5220;43.192;23.284;2022-09-09T14:47:39;10.48;;;8.25;;
10347;SDS011;5220;43.192;23.284;2022-09-09T14:50:21;11.68;;;8.25;;
10347;SDS011;5220;43.192;23.284;2022-09-09T14:56:13;9.38;;;8.02;;
10347;SDS011;5220;43.192;23.284;2022-09-09T15:01:38;8.68;;;7.85;;
10347;SDS011;5220;43.192;23.284;2022-09-09T15:07:07;8.32;;;7.53;;
10347;SDS011;5220;43.192;23.284;2022-09-09T15:09:44;11.93;;;7.75;;
10347;SDS011;5220;43.192;23.284;2022-09-09T15:12:14;8.77;;;7.88;;
10347;SDS011;5220;43.192;23.284;2022-09-09T15:18:06;11.43;;;8.00;;
10347;SDS011;5220;43.192;23.284;2022-09-09T15:20:32;10.07;;;7.55;;
10347;SDS011;5220;43.192;23.284;2022-09-09T15:29:42;9.27;;;8.27;;
10347;SDS011;5220;43.192;23.284;2022-09-09T15:32:09;9.30;;;8.35;;
10347;SDS011;5220;43.192;23.284;2022-09-09T15:37:21;12.13;;;7.97;;
10347;SDS011;5220;43.192;23.284;2022-09-09T15:39:48;9.38;;;8.05;;
10347;SDS011;5220;43.192;23.284;2022-09-09T15:42:15;10.30;;;8.43;;
10347;SDS011;5220;43.192;23.284;2022-09-09T15:48:04;12.85;;;8.70;;
10347;SDS011;5220;43.192;23.284;2022-09-09T15:50:31;9.85;;;8.88;;
10347;SDS011;5220;43.192;23.284;2022-09-09T15:52:58;9.57;;;8.55;;
10347;SDS011;5220;43.192;23.284;2022-09-09T15:55:27;11.70;;;8.10;;
10347;SDS011;5220;43.192;23.284;2022-09-09T15:57:55;11.50;;;8.90;;
10347;SDS011;5220;43.192;23.284;2022-09-09T16:00:22;10.60;;;9.23;;
10347;SDS011;5220;43.192;23.284;2022-09-09T16:02:50;11.05;;;9.32;;
10347;SDS011;5220;43.192;23.284;2022-09-09T16:05:18;12.93;;;8.98;;
10347;SDS011;5220;43.192;23.284;2022-09-09T16:07:45;11.95;;;9.35;;
10347;SDS011;5220;43.192;23.284;2022-09-09T16:10:12;12.70;;;9.15;;
10347;SDS011;5220;43.192;23.284;2022-09-09T16:12:39;12.57;;;9.50;;
10347;SDS011;5220;43.192;23.284;2022-09-09T16:15:06;13.60;;;9.52;;
10347;SDS011;5220;43.192;23.284;2022-09-09T16:17:33;11.40;;;9.57;;
10347;SDS011;5220;43.192;23.284;2022-09-09T16:20:03;13.43;;;10.25;;
10347;SDS011;5220;43.192;23.284;2022-09-09T16:25:29;18.48;;;9.57;;
10347;SDS011;5220;43.192;23.284;2022-09-09T16:36:21;16.10;;;10.32;;
10347;SDS011;5220;43.192;23.284;2022-09-09T16:38:53;14.55;;;9.80;;
10347;SDS011;5220;43.192;23.284;2022-09-09T16:41:22;11.88;;;9.65;;
10347;SDS011;5220;43.192;23.284;2022-09-09T16:47:06;14.85;;;10.23;;
10347;SDS011;5220;43.192;23.284;2022-09-09T16:52:14;13.88;;;10.50;;
10347;SDS011;5220;43.192;23.284;2022-09-09T16:57:14;12.13;;;9.23;;
10347;SDS011;5220;43.192;23.284;2022-09-09T16:59:41;14.43;;;9.52;;
10347;SDS011;5220;43.192;23.284;2022-09-09T17:02:08;13.65;;;10.38;;
10347;SDS011;5220;43.192;23.284;2022-09-09T17:16:59;15.10;;;11.00;;
10347;SDS011;5220;43.192;23.284;2022-09-09T17:19:27;13.48;;;10.38;;
10347;SDS011;5220;43.192;23.284;2022-09-09T17:21:55;14.75;;;9.98;;
10347;SDS011;5220;43.192;23.284;2022-09-09T17:24:39;12.98;;;9.63;;
10347;SDS011;5220;43.192;23.284;2022-09-09T17:30:28;15.82;;;9.32;;
10347;SDS011;5220;43.192;23.284;2022-09-09T17:39:36;12.27;;;9.55;;
10347;SDS011;5220;43.192;23.284;2022-09-09T17:42:03;14.45;;;9.60;;
10347;SDS011;5220;43.192;23.284;2022-09-09T17:47:54;17.92;;;12.20;;
10347;SDS011;5220;43.192;23.284;2022-09-09T17:50:21;19.83;;;11.95;;
10347;SDS011;5220;43.192;23.284;2022-09-09T17:52:49;17.45;;;11.50;;
10347;SDS011;5220;43.192;23.284;2022-09-09T17:55:18;14.93;;;11.05;;
10347;SDS011;5220;43.192;23.284;2022-09-09T17:57:46;13.55;;;9.88;;
10347;SDS011;5220;43.192;23.284;2022-09-09T18:00:13;12.23;;;10.52;;
10347;SDS011;5220;43.192;23.284;2022-09-09T18:02:40;13.25;;;10.25;;
10347;SDS011;5220;43.192;23.284;2022-09-09T18:11:16;19.60;;;13.00;;
10347;SDS011;5220;43.192;23.284;2022-09-09T18:19:42;14.75;;;9.32;;
10347;SDS011;5220;43.192;23.284;2022-09-09T18:22:09;13.30;;;9.43;;
10347;SDS011;5220;43.192;23.284;2022-09-09T18:24:42;12.85;;;8.95;;
10347;SDS011;5220;43.192;23.284;2022-09-09T18:29:59;14.50;;;9.52;;
10347;SDS011;5220;43.192;23.284;2022-09-09T18:32:26;12.15;;;8.45;;
10347;SDS011;5220;43.192;23.284;2022-09-09T18:34:56;16.27;;;7.90;;
10347;SDS011;5220;43.192;23.284;2022-09-09T18:47:02;9.77;;;6.97;;
10347;SDS011;5220;43.192;23.284;2022-09-09T18:49:28;9.48;;;5.53;;
10347;SDS011;5220;43.192;23.284;2022-09-09T18:51:55;9.10;;;6.03;;
10347;SDS011;5220;43.192;23.284;2022-09-09T18:57:50;9.70;;;5.78;;